Time;durP1;ratioP1;P1;durP2;ratioP2;P2;SDS_P1;SDS_P2;PMS_P1;PMS_P2;Temp;Humidity;BMP_temperature;BMP_pressure;BME280_temperature;BME280_humidity;BME280_pressure;Samples;Min_cycle;Max_cycle;Signal;HPM_P1;HPM_P2
2022/03/04 00:01:03;;;;;;;16.55;9.75;;;;;;;;;;5323477;28;20012;-67
2022/03/04 00:03:34;;;;;;;12.27;8.97;;;;;;;;;;5323517;28;20012;-68
2022/03/04 00:06:05;;;;;;;15.40;10.15;;;;;;;;;;5322645;28;20035;-68
2022/03/04 00:08:37;;;;;;;14.84;9.74;;;;;;;;;;5323232;28;20099;-68
2022/03/04 00:11:08;;;;;;;15.20;9.35;;;;;;;;;;5323457;28;20016;-68
2022/03/04 00:13:40;;;;;;;14.70;9.68;;;;;;;;;;5322206;28;20118;-67
2022/03/04 00:16:11;;;;;;;16.92;9.90;;;;;;;;;;5323104;28;20012;-68
2022/03/04 00:18:43;;;;;;;18.20;9.90;;;;;;;;;;5322234;28;20023;-68
2022/03/04 00:21:14;;;;;;;17.50;9.87;;;;;;;;;;5323080;28;20458;-67
2022/03/04 00:23:45;;;;;;;16.67;10.70;;;;;;;;;;5325506;28;20165;-68
2022/03/04 00:26:16;;;;;;;17.14;9.74;;;;;;;;;;5326810;28;20015;-68
2022/03/04 00:28:47;;;;;;;18.36;9.60;;;;;;;;;;5326937;28;20016;-69
2022/03/04 00:31:18;;;;;;;19.02;10.40;;;;;;;;;;5327287;28;20023;-67
2022/03/04 00:33:50;;;;;;;19.83;9.93;;;;;;;;;;5325828;28;20118;-68
2022/03/04 00:36:22;;;;;;;16.97;10.10;;;;;;;;;;5327450;28;20016;-68
2022/03/04 00:38:54;;;;;;;17.20;10.43;;;;;;;;;;5326828;28;20024;-68
2022/03/04 00:41:25;;;;;;;17.33;10.43;;;;;;;;;;5326184;28;20014;-68
2022/03/04 00:43:56;;;;;;;14.43;10.10;;;;;;;;;;5326593;28;20434;-68
2022/03/04 00:46:28;;;;;;;19.47;10.57;;;;;;;;;;5327034;28;20039;-68
2022/03/04 00:48:59;;;;;;;16.97;11.30;;;;;;;;;;5325729;28;20036;-68
2022/03/04 00:51:30;;;;;;;18.63;10.73;;;;;;;;;;5326661;28;20495;-68
2022/03/04 00:54:01;;;;;;;19.63;10.53;;;;;;;;;;5325686;28;20031;-67
2022/03/04 00:56:33;;;;;;;18.17;10.40;;;;;;;;;;5326628;28;20489;-69
2022/03/04 00:59:04;;;;;;;16.88;10.50;;;;;;;;;;5326565;28;20111;-68
2022/03/04 01:01:35;;;;;;;17.33;10.90;;;;;;;;;;5325982;28;20053;-68
2022/03/04 01:04:07;;;;;;;15.97;10.47;;;;;;;;;;5326516;28;20103;-68
2022/03/04 01:06:39;;;;;;;17.20;10.90;;;;;;;;;;5326939;28;20016;-68
2022/03/04 01:09:10;;;;;;;20.03;10.73;;;;;;;;;;5325633;28;20011;-68
2022/03/04 01:11:41;;;;;;;19.98;11.36;;;;;;;;;;5326452;28;20140;-68
2022/03/04 01:14:12;;;;;;;20.77;10.43;;;;;;;;;;5325990;28;20065;-68
2022/03/04 01:16:43;;;;;;;16.70;10.37;;;;;;;;;;5325447;28;20485;-68
2022/03/04 01:19:15;;;;;;;16.82;10.62;;;;;;;;;;5325965;28;20039;-67
2022/03/04 01:21:46;;;;;;;16.83;10.87;;;;;;;;;;5325643;28;20077;-67
2022/03/04 01:24:17;;;;;;;17.92;11.70;;;;;;;;;;5325583;28;20383;-67
2022/03/04 01:26:48;;;;;;;20.30;11.17;;;;;;;;;;5325506;28;20023;-67
2022/03/04 01:29:19;;;;;;;17.98;10.72;;;;;;;;;;5325470;28;20530;-68
2022/03/04 01:31:50;;;;;;;20.07;11.70;;;;;;;;;;5325535;28;20463;-68
2022/03/04 01:34:22;;;;;;;18.07;10.50;;;;;;;;;;5324810;28;20379;-68
2022/03/04 01:36:53;;;;;;;17.90;11.10;;;;;;;;;;5324763;28;20024;-68
2022/03/04 01:39:24;;;;;;;18.42;11.98;;;;;;;;;;5326005;28;20031;-68
2022/03/04 01:41:55;;;;;;;16.46;11.18;;;;;;;;;;5325373;28;20039;-68
2022/03/04 01:44:26;;;;;;;21.08;11.30;;;;;;;;;;5325028;28;20034;-68
2022/03/04 01:46:57;;;;;;;18.20;11.40;;;;;;;;;;5325397;28;20098;-68
2022/03/04 01:49:29;;;;;;;19.93;11.10;;;;;;;;;;5325959;28;20034;-69
2022/03/04 01:52:00;;;;;;;19.30;11.73;;;;;;;;;;5324819;28;20019;-68
2022/03/04 01:54:32;;;;;;;22.00;13.40;;;;;;;;;;5325306;28;20039;-68
2022/03/04 01:57:03;;;;;;;19.90;11.60;;;;;;;;;;5325346;28;20140;-68
2022/03/04 01:59:34;;;;;;;20.67;12.40;;;;;;;;;;5324739;28;20023;-67
2022/03/04 02:02:06;;;;;;;20.27;12.30;;;;;;;;;;5325346;28;20024;-68
2022/03/04 02:04:37;;;;;;;19.30;12.13;;;;;;;;;;5324455;28;20011;-67
2022/03/04 02:07:08;;;;;;;20.33;12.23;;;;;;;;;;5325120;28;20041;-68
2022/03/04 02:09:40;;;;;;;19.56;11.68;;;;;;;;;;5325085;28;20381;-67
2022/03/04 02:12:11;;;;;;;20.00;12.60;;;;;;;;;;5324485;28;20386;-68
2022/03/04 02:14:42;;;;;;;23.58;12.22;;;;;;;;;;5324596;28;20116;-68
2022/03/04 02:17:13;;;;;;;22.43;13.53;;;;;;;;;;5325019;28;20388;-68
2022/03/04 02:19:44;;;;;;;22.43;12.57;;;;;;;;;;5323713;28;20020;-68
2022/03/04 02:22:15;;;;;;;21.17;13.05;;;;;;;;;;5325050;28;20050;-68
2022/03/04 02:24:47;;;;;;;22.90;14.07;;;;;;;;;;5324753;28;20037;-68
2022/03/04 02:27:18;;;;;;;21.30;13.17;;;;;;;;;;5324409;28;20027;-68
2022/03/04 02:29:49;;;;;;;22.37;13.50;;;;;;;;;;5324318;28;20030;-68
2022/03/04 02:32:20;;;;;;;21.98;12.52;;;;;;;;;;5323956;28;20409;-68
2022/03/04 02:34:52;;;;;;;21.72;13.62;;;;;;;;;;5324120;28;20479;-68
2022/03/04 02:37:23;;;;;;;22.00;13.60;;;;;;;;;;5324893;28;20562;-67
2022/03/04 02:39:54;;;;;;;20.90;12.80;;;;;;;;;;5323451;28;20015;-68
2022/03/04 02:42:25;;;;;;;20.90;13.63;;;;;;;;;;5324763;28;20050;-68
2022/03/04 02:44:57;;;;;;;24.50;13.67;;;;;;;;;;5324056;28;20028;-67
2022/03/04 02:47:28;;;;;;;22.43;13.33;;;;;;;;;;5323784;28;20058;-67
2022/03/04 02:49:59;;;;;;;22.90;14.07;;;;;;;;;;5324108;28;20024;-68
2022/03/04 02:52:30;;;;;;;21.42;14.00;;;;;;;;;;5324339;28;20042;-68
2022/03/04 02:55:01;;;;;;;23.02;13.78;;;;;;;;;;5323514;28;20036;-68
2022/03/04 02:57:32;;;;;;;24.87;13.97;;;;;;;;;;5324034;28;20055;-68
2022/03/04 03:00:04;;;;;;;22.00;13.60;;;;;;;;;;5324227;28;20102;-67
2022/03/04 03:02:36;;;;;;;25.33;13.43;;;;;;;;;;5323241;28;20184;-68
2022/03/04 03:05:07;;;;;;;24.67;13.77;;;;;;;;;;5323962;28;20012;-68
2022/03/04 03:07:39;;;;;;;22.83;13.83;;;;;;;;;;5323232;28;20478;-68
2022/03/04 03:10:10;;;;;;;22.63;13.63;;;;;;;;;;5323943;28;20084;-67
2022/03/04 03:12:42;;;;;;;21.67;13.33;;;;;;;;;;5323959;28;20039;-68
2022/03/04 03:15:14;;;;;;;21.73;13.47;;;;;;;;;;5323047;27;20423;-69
2022/03/04 03:17:46;;;;;;;23.80;13.93;;;;;;;;;;5323631;28;20079;-68
2022/03/04 03:20:17;;;;;;;22.23;14.00;;;;;;;;;;5324051;28;20115;-68
2022/03/04 03:22:48;;;;;;;22.13;13.93;;;;;;;;;;5322771;28;20023;-68
2022/03/04 03:25:19;;;;;;;24.43;13.53;;;;;;;;;;5324212;28;20023;-68
2022/03/04 03:27:51;;;;;;;23.63;13.13;;;;;;;;;;5323691;28;20022;-68
2022/03/04 03:30:22;;;;;;;24.93;14.57;;;;;;;;;;5323133;28;20018;-68
2022/03/04 03:32:53;;;;;;;23.37;13.47;;;;;;;;;;5323093;28;20554;-68
2022/03/04 03:35:25;;;;;;;25.33;14.27;;;;;;;;;;5323795;28;20008;-68
2022/03/04 03:37:56;;;;;;;22.47;14.53;;;;;;;;;;5322522;28;20018;-67
2022/03/04 03:40:27;;;;;;;23.30;14.93;;;;;;;;;;5323963;28;20064;-67
2022/03/04 03:42:58;;;;;;;24.73;13.17;;;;;;;;;;5322488;28;20045;-67
2022/03/04 03:45:29;;;;;;;24.93;14.20;;;;;;;;;;5323299;28;20058;-68
2022/03/04 03:48:01;;;;;;;25.53;14.40;;;;;;;;;;5323407;28;20020;-66
2022/03/04 03:50:32;;;;;;;26.77;15.13;;;;;;;;;;5322678;28;20359;-66
2022/03/04 03:53:03;;;;;;;22.60;14.30;;;;;;;;;;5323442;28;20036;-68
2022/03/04 03:55:35;;;;;;;25.83;15.03;;;;;;;;;;5323320;28;20024;-68
2022/03/04 03:58:06;;;;;;;25.40;14.00;;;;;;;;;;5324192;28;20451;-68
2022/03/04 04:00:37;;;;;;;28.20;14.77;;;;;;;;;;5327825;28;20402;-68
2022/03/04 04:03:08;;;;;;;23.53;13.90;;;;;;;;;;5327633;28;20023;-68
2022/03/04 04:05:40;;;;;;;24.17;14.30;;;;;;;;;;5326889;28;20483;-68
2022/03/04 04:08:11;;;;;;;23.73;14.30;;;;;;;;;;5327597;28;20031;-68
2022/03/04 04:10:42;;;;;;;22.25;14.50;;;;;;;;;;5327318;28;20475;-68
2022/03/04 04:13:14;;;;;;;24.20;14.40;;;;;;;;;;5326705;28;20074;-67
2022/03/04 04:15:45;;;;;;;20.57;13.50;;;;;;;;;;5327388;28;20012;-68
2022/03/04 04:18:16;;;;;;;25.70;15.13;;;;;;;;;;5326872;28;20047;-68
2022/03/04 04:20:47;;;;;;;27.08;14.48;;;;;;;;;;5327063;28;20511;-68
2022/03/04 04:23:18;;;;;;;25.15;13.80;;;;;;;;;;5327694;28;20428;-68
2022/03/04 04:25:49;;;;;;;27.40;13.97;;;;;;;;;;5326210;28;20016;-68
2022/03/04 04:28:23;;;;;;;24.00;14.53;;;;;;;;;;5327508;28;20019;-67
2022/03/04 04:30:54;;;;;;;23.77;15.03;;;;;;;;;;5326821;28;20024;-67
2022/03/04 04:33:26;;;;;;;26.57;16.00;;;;;;;;;;5326409;28;20488;-67
2022/03/04 04:35:57;;;;;;;23.27;15.00;;;;;;;;;;5327014;28;20350;-68
2022/03/04 04:38:28;;;;;;;23.27;14.57;;;;;;;;;;5327448;28;20024;-68
2022/03/04 04:40:59;;;;;;;25.06;15.68;;;;;;;;;;5325849;28;20149;-68
2022/03/04 04:43:30;;;;;;;26.00;15.10;;;;;;;;;;5326813;28;20015;-67
2022/03/04 04:46:02;;;;;;;28.35;16.17;;;;;;;;;;5325926;28;20030;-68
2022/03/04 04:48:33;;;;;;;25.67;14.67;;;;;;;;;;5326864;28;20055;-68
2022/03/04 04:51:04;;;;;;;25.60;14.86;;;;;;;;;;5326913;28;20414;-67
2022/03/04 04:53:36;;;;;;;29.47;16.03;;;;;;;;;;5325873;28;20467;-67
2022/03/04 04:56:07;;;;;;;27.73;15.87;;;;;;;;;;5326844;28;20087;-68
2022/03/04 04:58:38;;;;;;;28.00;16.80;;;;;;;;;;5326680;28;20108;-67
2022/03/04 05:01:09;;;;;;;23.93;15.00;;;;;;;;;;5326038;28;20371;-67
2022/03/04 05:03:40;;;;;;;27.88;15.80;;;;;;;;;;5326634;28;20028;-68
2022/03/04 05:06:12;;;;;;;27.00;16.07;;;;;;;;;;5326457;28;20019;-68
2022/03/04 05:08:43;;;;;;;25.37;14.90;;;;;;;;;;5325389;28;20452;-68
2022/03/04 05:11:14;;;;;;;30.33;15.40;;;;;;;;;;5326200;28;20016;-67
2022/03/04 05:13:47;;;;;;;22.94;14.32;;;;;;;;;;5325560;28;20483;-67
2022/03/04 05:16:18;;;;;;;25.23;15.17;;;;;;;;;;5325511;27;20118;-67
2022/03/04 05:18:49;;;;;;;23.23;14.80;;;;;;;;;;5325852;28;20103;-67
2022/03/04 05:21:20;;;;;;;26.97;15.37;;;;;;;;;;5325546;28;20043;-67
2022/03/04 05:24:00;;;;;;;27.10;14.65;;;;;;;;;;5325979;28;20030;-68
2022/03/04 05:26:33;;;;;;;24.53;14.73;;;;;;;;;;5326261;28;20012;-68
2022/03/04 05:29:05;;;;;;;26.07;15.57;;;;;;;;;;5325299;28;20020;-67
2022/03/04 05:31:38;;;;;;;25.50;14.50;;;;;;;;;;5325856;28;20016;-68
2022/03/04 05:34:10;;;;;;;23.47;15.13;;;;;;;;;;5325970;28;20502;-67
2022/03/04 05:36:41;;;;;;;24.90;15.53;;;;;;;;;;5325026;28;20047;-68
2022/03/04 05:39:12;;;;;;;27.67;15.03;;;;;;;;;;5325894;28;20019;-68
2022/03/04 05:41:43;;;;;;;25.83;14.87;;;;;;;;;;5325831;28;20023;-70
2022/03/04 05:44:14;;;;;;;28.06;15.40;;;;;;;;;;5324913;28;20023;-68
2022/03/04 05:46:46;;;;;;;26.43;15.77;;;;;;;;;;5325585;28;20115;-68
2022/03/04 05:49:17;;;;;;;26.70;15.10;;;;;;;;;;5325368;28;20019;-67
2022/03/04 05:51:48;;;;;;;23.57;14.23;;;;;;;;;;5325214;28;20030;-68
2022/03/04 05:54:19;;;;;;;27.84;16.52;;;;;;;;;;5325713;28;20039;-68
2022/03/04 05:56:51;;;;;;;24.33;15.03;;;;;;;;;;5324293;28;20019;-68
2022/03/04 05:59:22;;;;;;;23.67;14.33;;;;;;;;;;5325678;28;20073;-67
2022/03/04 06:01:53;;;;;;;25.17;14.83;;;;;;;;;;5325183;28;20386;-68
2022/03/04 06:04:24;;;;;;;29.00;16.18;;;;;;;;;;5324835;28;20034;-67
2022/03/04 06:06:55;;;;;;;26.17;15.73;;;;;;;;;;5324686;28;20057;-68
2022/03/04 06:09:28;;;;;;;26.27;16.08;;;;;;;;;;5325617;28;20023;-67
2022/03/04 06:11:59;;;;;;;25.20;15.37;;;;;;;;;;5324270;28;20016;-67
2022/03/04 06:14:30;;;;;;;26.17;17.30;;;;;;;;;;5324735;28;20051;-68
2022/03/04 06:17:02;;;;;;;26.57;15.27;;;;;;;;;;5325070;28;20386;-68
2022/03/04 06:19:33;;;;;;;30.23;16.03;;;;;;;;;;5324110;28;20502;-68
2022/03/04 06:22:04;;;;;;;29.43;15.83;;;;;;;;;;5324471;28;20020;-68
2022/03/04 06:24:36;;;;;;;27.48;16.23;;;;;;;;;;5324090;28;20034;-68
2022/03/04 06:27:07;;;;;;;25.93;15.83;;;;;;;;;;5324910;28;20064;-68
2022/03/04 06:29:38;;;;;;;23.90;15.07;;;;;;;;;;5324838;28;20027;-68
2022/03/04 06:32:09;;;;;;;27.40;16.40;;;;;;;;;;5323898;28;20019;-68
2022/03/04 06:34:40;;;;;;;28.40;16.83;;;;;;;;;;5324353;28;20032;-68
2022/03/04 06:37:12;;;;;;;24.33;15.47;;;;;;;;;;5324871;28;20473;-67
2022/03/04 06:39:43;;;;;;;28.90;16.40;;;;;;;;;;5323902;28;20066;-68
2022/03/04 06:42:14;;;;;;;32.00;16.70;;;;;;;;;;5324348;28;20019;-68
2022/03/04 06:44:46;;;;;;;27.90;16.27;;;;;;;;;;5324221;28;20023;-68
2022/03/04 06:47:17;;;;;;;30.37;16.10;;;;;;;;;;5324109;28;20020;-68
2022/03/04 06:49:48;;;;;;;28.88;16.46;;;;;;;;;;5324157;28;20397;-68
2022/03/04 06:52:21;;;;;;;27.26;16.34;;;;;;;;;;5324538;28;20042;-67
2022/03/04 06:54:53;;;;;;;28.40;16.90;;;;;;;;;;5323114;28;20036;-67
2022/03/04 06:57:24;;;;;;;28.27;17.33;;;;;;;;;;5324824;28;20348;-68
2022/03/04 06:59:55;;;;;;;29.77;16.73;;;;;;;;;;5323079;28;20027;-69
2022/03/04 07:02:26;;;;;;;25.73;16.23;;;;;;;;;;5324297;28;20485;-68
2022/03/04 07:04:57;;;;;;;24.80;13.97;;;;;;;;;;5323658;28;20020;-68
2022/03/04 07:07:28;;;;;;;24.95;13.68;;;;;;;;;;5323253;28;20050;-68
2022/03/04 07:10:00;;;;;;;22.90;13.77;;;;;;;;;;5324096;28;20007;-67
2022/03/04 07:12:31;;;;;;;24.75;13.90;;;;;;;;;;5323902;28;20059;-67
2022/03/04 07:15:03;;;;;;;22.23;14.48;;;;;;;;;;5322494;28;20062;-68
2022/03/04 07:17:34;;;;;;;20.67;13.35;;;;;;;;;;5323737;28;20482;-68
2022/03/04 07:20:06;;;;;;;22.80;12.95;;;;;;;;;;5323655;28;20031;-68
2022/03/04 07:22:38;;;;;;;23.38;14.13;;;;;;;;;;5322900;28;20026;-67
2022/03/04 07:25:11;;;;;;;21.75;14.10;;;;;;;;;;5323831;28;20514;-68
2022/03/04 07:27:42;;;;;;;24.48;14.57;;;;;;;;;;5323419;28;20020;-68
2022/03/04 07:30:15;;;;;;;23.83;14.50;;;;;;;;;;5323075;28;20444;-68
2022/03/04 07:32:46;;;;;;;23.58;15.73;;;;;;;;;;5322475;28;20024;-69
2022/03/04 07:35:17;;;;;;;26.85;16.05;;;;;;;;;;5323330;28;20076;-69
2022/03/04 07:37:49;;;;;;;22.90;14.88;;;;;;;;;;5323565;28;20015;-68
2022/03/04 07:40:20;;;;;;;25.86;15.20;;;;;;;;;;5323966;28;20042;-67
2022/03/04 07:42:51;;;;;;;26.20;15.90;;;;;;;;;;5322345;28;20065;-67
2022/03/04 07:45:22;;;;;;;27.42;16.25;;;;;;;;;;5324086;28;20015;-68
2022/03/04 07:47:53;;;;;;;23.94;15.06;;;;;;;;;;5323202;28;20055;-67
2022/03/04 07:50:25;;;;;;;25.45;14.85;;;;;;;;;;5323031;28;20420;-67
2022/03/04 07:52:56;;;;;;;27.40;15.48;;;;;;;;;;5322981;28;20019;-67
2022/03/04 07:55:28;;;;;;;23.90;16.08;;;;;;;;;;5323415;28;20026;-68
2022/03/04 07:57:59;;;;;;;26.10;16.23;;;;;;;;;;5322504;28;20012;-67
2022/03/04 08:00:30;;;;;;;25.38;15.65;;;;;;;;;;5323296;28;20035;-67
2022/03/04 08:03:01;;;;;;;25.88;16.96;;;;;;;;;;5322487;28;20020;-68
2022/03/04 08:05:33;;;;;;;23.42;14.25;;;;;;;;;;5323034;28;20020;-67
2022/03/04 08:08:05;;;;;;;25.17;15.50;;;;;;;;;;5323127;28;20027;-68
2022/03/04 08:10:36;;;;;;;20.80;14.25;;;;;;;;;;5322510;28;20419;-67
2022/03/04 08:13:07;;;;;;;20.83;13.75;;;;;;;;;;5322997;28;20016;-67
2022/03/04 08:15:38;;;;;;;23.28;14.66;;;;;;;;;;5323059;28;20100;-68
2022/03/04 08:18:09;;;;;;;25.20;15.32;;;;;;;;;;5322378;28;20023;-69
2022/03/04 08:20:41;;;;;;;22.83;14.38;;;;;;;;;;5322991;28;20026;-67
2022/03/04 08:23:12;;;;;;;23.38;14.27;;;;;;;;;;5322803;28;20708;-67
2022/03/04 08:25:44;;;;;;;22.15;14.90;;;;;;;;;;5322008;28;20034;-67
2022/03/04 08:28:15;;;;;;;23.08;15.55;;;;;;;;;;5323003;28;20758;-67
2022/03/04 08:30:46;;;;;;;25.02;15.15;;;;;;;;;;5322600;28;20455;-67
2022/03/04 08:33:17;;;;;;;20.23;14.52;;;;;;;;;;5322469;28;20581;-67
2022/03/04 08:35:48;;;;;;;24.33;15.38;;;;;;;;;;5322735;28;20024;-68
2022/03/04 08:38:20;;;;;;;24.88;15.57;;;;;;;;;;5322456;28;20291;-67
2022/03/04 08:40:51;;;;;;;18.85;14.63;;;;;;;;;;5322684;28;20352;-66
2022/03/04 08:43:22;;;;;;;22.38;14.82;;;;;;;;;;5323207;28;20023;-67
2022/03/04 08:45:53;;;;;;;22.15;15.98;;;;;;;;;;5325629;28;20432;-68
2022/03/04 08:48:25;;;;;;;24.60;15.52;;;;;;;;;;5327048;28;20771;-67
2022/03/04 08:50:56;;;;;;;24.45;16.15;;;;;;;;;;5326167;28;20443;-66
2022/03/04 08:53:28;;;;;;;23.27;14.57;;;;;;;;;;5325893;28;20026;-66
2022/03/04 08:55:59;;;;;;;21.83;15.93;;;;;;;;;;5326385;28;20020;-67
2022/03/04 08:58:31;;;;;;;21.30;14.48;;;;;;;;;;5326719;28;20007;-67
2022/03/04 09:01:02;;;;;;;22.10;14.65;;;;;;;;;;5325777;28;20015;-67
2022/03/04 09:03:33;;;;;;;23.98;14.35;;;;;;;;;;5326685;28;20471;-68
2022/03/04 09:06:05;;;;;;;26.17;14.93;;;;;;;;;;5326390;28;20110;-67
2022/03/04 09:08:36;;;;;;;25.20;17.17;;;;;;;;;;5325520;28;20455;-68
2022/03/04 09:11:07;;;;;;;27.85;15.63;;;;;;;;;;5326599;28;20482;-67
2022/03/04 09:13:38;;;;;;;23.33;15.27;;;;;;;;;;5325359;28;20040;-67
2022/03/04 09:16:10;;;;;;;24.33;16.00;;;;;;;;;;5326370;28;20033;-67
2022/03/04 09:18:41;;;;;;;21.35;14.73;;;;;;;;;;5326202;28;20046;-68
2022/03/04 09:21:12;;;;;;;21.63;15.38;;;;;;;;;;5325278;28;20032;-68
2022/03/04 09:23:43;;;;;;;25.58;15.00;;;;;;;;;;5326099;28;20396;-68
2022/03/04 09:26:15;;;;;;;22.22;14.88;;;;;;;;;;5326104;28;20026;-67
2022/03/04 09:28:47;;;;;;;22.05;14.57;;;;;;;;;;5325087;28;20466;-68
2022/03/04 09:31:18;;;;;;;24.92;14.90;;;;;;;;;;5326335;28;20003;-68
2022/03/04 09:33:49;;;;;;;22.27;15.13;;;;;;;;;;5325711;28;20024;-68
2022/03/04 09:36:20;;;;;;;25.45;16.23;;;;;;;;;;5325246;28;20020;-67
2022/03/04 09:38:52;;;;;;;21.48;15.48;;;;;;;;;;5325373;28;20379;-68
2022/03/04 09:41:25;;;;;;;23.45;15.20;;;;;;;;;;5325259;28;20011;-67
2022/03/04 09:43:56;;;;;;;21.20;15.30;;;;;;;;;;5325407;28;20260;-68
2022/03/04 09:46:27;;;;;;;24.55;16.33;;;;;;;;;;5325985;28;20467;-67
2022/03/04 09:48:59;;;;;;;24.58;15.46;;;;;;;;;;5324454;28;20020;-66
2022/03/04 09:51:30;;;;;;;23.73;15.27;;;;;;;;;;5325693;28;20051;-67
2022/03/04 09:54:01;;;;;;;24.10;15.42;;;;;;;;;;5325444;28;20039;-67
2022/03/04 09:56:33;;;;;;;22.63;14.57;;;;;;;;;;5323767;28;20008;-67
2022/03/04 09:59:04;;;;;;;21.42;13.82;;;;;;;;;;5325676;28;20019;-67
2022/03/04 10:01:35;;;;;;;26.83;14.02;;;;;;;;;;5325470;28;20020;-67
2022/03/04 10:04:07;;;;;;;25.35;16.00;;;;;;;;;;5324597;28;20038;-67
2022/03/04 10:06:38;;;;;;;26.75;16.95;;;;;;;;;;5324632;28;20020;-67
2022/03/04 10:09:09;;;;;;;22.45;16.55;;;;;;;;;;5325241;28;20031;-66
2022/03/04 10:11:40;;;;;;;25.25;16.77;;;;;;;;;;5324535;28;20039;-64
2022/03/04 10:14:13;;;;;;;25.58;16.48;;;;;;;;;;5324616;28;20309;-65
2022/03/04 10:16:44;;;;;;;25.30;16.02;;;;;;;;;;5323752;28;20775;-66
2022/03/04 10:19:20;;;;;;;22.98;16.04;;;;;;;;;;5325212;28;20023;-67
2022/03/04 10:21:51;;;;;;;22.13;16.08;;;;;;;;;;5324757;28;20008;-68
2022/03/04 10:24:22;;;;;;;22.52;15.70;;;;;;;;;;5324524;28;20027;-67
2022/03/04 10:26:57;;;;;;;20.95;15.55;;;;;;;;;;5324395;28;20505;-67
2022/03/04 10:29:29;;;;;;;23.00;15.07;;;;;;;;;;5324631;28;20054;-67
2022/03/04 10:32:11;;;;;;;21.58;16.00;;;;;;;;;;5324051;28;20547;-67
2022/03/04 10:34:49;;;;;;;25.50;15.73;;;;;;;;;;5324691;28;20031;-67
2022/03/04 10:37:40;;;;;;;23.35;15.65;;;;;;;;;;5320318;28;20027;-67
2022/03/04 10:40:11;;;;;;;22.20;15.85;;;;;;;;;;5324394;28;20019;-67
2022/03/04 10:43:09;;;;;;;21.82;15.36;;;;;;;;;;5324457;28;20144;-67
2022/03/04 10:45:41;;;;;;;23.08;14.70;;;;;;;;;;5319389;28;20062;-66
2022/03/04 10:48:13;;;;;;;22.33;14.77;;;;;;;;;;5324314;28;20044;-67
2022/03/04 10:50:45;;;;;;;21.30;15.07;;;;;;;;;;5324161;28;20055;-66
2022/03/04 10:53:17;;;;;;;24.08;15.95;;;;;;;;;;5323691;28;20038;-65
2022/03/04 10:55:51;;;;;;;22.05;14.80;;;;;;;;;;5323824;28;20492;-66
2022/03/04 10:58:24;;;;;;;21.15;15.43;;;;;;;;;;5324222;28;20390;-67
2022/03/04 11:00:59;;;;;;;22.23;15.13;;;;;;;;;;5322924;28;20032;-66
2022/03/04 11:03:31;;;;;;;18.90;14.25;;;;;;;;;;5324131;28;20019;-67
2022/03/04 11:06:13;;;;;;;25.33;14.60;;;;;;;;;;5323165;28;20068;-66
2022/03/04 11:08:44;;;;;;;20.35;14.68;;;;;;;;;;5324178;28;20434;-65
2022/03/04 11:11:15;;;;;;;20.65;14.57;;;;;;;;;;5324084;28;20055;-65
2022/03/04 11:13:46;;;;;;;22.30;14.82;;;;;;;;;;5322474;28;20097;-65
2022/03/04 11:16:17;;;;;;;23.48;15.77;;;;;;;;;;5324125;28;20015;-67
2022/03/04 11:18:50;;;;;;;21.00;14.20;;;;;;;;;;5323540;28;20122;-66
2022/03/04 11:21:21;;;;;;;19.85;14.25;;;;;;;;;;5323264;28;20416;-66
2022/03/04 11:23:53;;;;;;;21.00;14.15;;;;;;;;;;5323328;28;20018;-66
2022/03/04 11:26:25;;;;;;;19.27;13.93;;;;;;;;;;5324201;28;20322;-66
2022/03/04 11:28:58;;;;;;;22.35;14.32;;;;;;;;;;5322734;28;20102;-67
2022/03/04 11:31:30;;;;;;;21.23;14.10;;;;;;;;;;5323709;28;20008;-66
2022/03/04 11:34:02;;;;;;;21.67;13.95;;;;;;;;;;5322582;28;20046;-66
2022/03/04 11:36:37;;;;;;;26.52;14.32;;;;;;;;;;5323715;28;20038;-67
2022/03/04 11:39:10;;;;;;;22.15;14.20;;;;;;;;;;5323846;28;20027;-67
2022/03/04 11:41:47;;;;;;;20.25;13.93;;;;;;;;;;5322424;28;20023;-67
2022/03/04 11:44:19;;;;;;;21.48;13.75;;;;;;;;;;5323462;28;20023;-67
2022/03/04 11:47:01;;;;;;;17.88;13.25;;;;;;;;;;5322764;28;20073;-67
2022/03/04 11:49:38;;;;;;;22.23;13.80;;;;;;;;;;5322731;28;20478;-67
2022/03/04 11:52:09;;;;;;;18.90;13.65;;;;;;;;;;5323223;28;20042;-67
2022/03/04 11:54:44;;;;;;;24.48;14.77;;;;;;;;;;5323078;28;20028;-66
2022/03/04 11:57:17;;;;;;;22.45;14.07;;;;;;;;;;5322750;28;20098;-67
2022/03/04 11:59:48;;;;;;;24.05;15.27;;;;;;;;;;5323020;28;20026;-67
2022/03/04 12:02:26;;;;;;;18.35;13.07;;;;;;;;;;5322886;28;20031;-67
2022/03/04 12:05:12;;;;;;;21.50;13.95;;;;;;;;;;5322824;28;20020;-67
2022/03/04 12:07:45;;;;;;;19.23;13.30;;;;;;;;;;5322992;28;20434;-66
2022/03/04 12:10:17;;;;;;;19.95;13.77;;;;;;;;;;5322624;28;20008;-67
2022/03/04 12:13:03;;;;;;;18.05;12.90;;;;;;;;;;5322647;28;20026;-67
2022/03/04 12:15:44;;;;;;;18.60;12.90;;;;;;;;;;5322637;28;20071;-67
2022/03/04 12:18:16;;;;;;;20.52;12.63;;;;;;;;;;5322067;28;20026;-67
2022/03/04 12:20:48;;;;;;;17.90;12.70;;;;;;;;;;5327178;28;20470;-67
2022/03/04 12:23:26;;;;;;;20.08;11.48;;;;;;;;;;5326673;28;20016;-67
2022/03/04 12:25:58;;;;;;;15.02;11.18;;;;;;;;;;5326853;28;20261;-67
2022/03/04 12:28:33;;;;;;;16.38;11.77;;;;;;;;;;5327426;28;20031;-67
2022/03/04 12:31:05;;;;;;;15.05;10.30;;;;;;;;;;5326354;28;20092;-67
2022/03/04 12:33:47;;;;;;;13.90;9.70;;;;;;;;;;5327199;27;20378;-67
2022/03/04 12:36:19;;;;;;;18.10;10.07;;;;;;;;;;5327500;28;20016;-67
2022/03/04 12:38:57;;;;;;;14.82;10.57;;;;;;;;;;5325768;28;20039;-66
2022/03/04 12:41:30;;;;;;;20.02;11.48;;;;;;;;;;5327238;28;20092;-67
2022/03/04 12:44:03;;;;;;;12.95;9.50;;;;;;;;;;5326810;28;20015;-67
2022/03/04 12:46:38;;;;;;;16.67;10.73;;;;;;;;;;5325462;28;20030;-65
2022/03/04 12:49:10;;;;;;;14.82;10.10;;;;;;;;;;5325497;28;20370;-66
2022/03/04 12:51:42;;;;;;;14.98;9.70;;;;;;;;;;5324728;28;20011;-67
2022/03/04 12:54:14;;;;;;;14.95;9.88;;;;;;;;;;5326089;28;20063;-66
2022/03/04 12:56:49;;;;;;;13.07;9.23;;;;;;;;;;5325862;28;20428;-67
2022/03/04 12:59:20;;;;;;;14.68;9.88;;;;;;;;;;5325339;28;20051;-67
2022/03/04 13:01:52;;;;;;;14.45;10.05;;;;;;;;;;5325999;28;20047;-67
2022/03/04 13:04:24;;;;;;;12.98;9.27;;;;;;;;;;5326804;28;20027;-67
2022/03/04 13:06:56;;;;;;;13.98;9.27;;;;;;;;;;5325257;28;20019;-67
2022/03/04 13:09:28;;;;;;;13.48;9.02;;;;;;;;;;5326393;28;20024;-66
2022/03/04 13:12:03;;;;;;;14.05;8.95;;;;;;;;;;5325948;28;20356;-67
2022/03/04 13:14:34;;;;;;;14.20;9.30;;;;;;;;;;5325226;28;20059;-67
2022/03/04 13:17:11;;;;;;;13.02;9.23;;;;;;;;;;5325979;28;20031;-66
2022/03/04 13:19:43;;;;;;;14.50;9.02;;;;;;;;;;5325556;28;20028;-66
2022/03/04 13:22:16;;;;;;;12.65;8.70;;;;;;;;;;5326002;28;20011;-66
2022/03/04 13:24:57;;;;;;;11.25;9.23;;;;;;;;;;5325823;28;20024;-66
2022/03/04 13:27:35;;;;;;;11.68;8.02;;;;;;;;;;5325538;28;20023;-66
2022/03/04 13:30:06;;;;;;;13.32;8.95;;;;;;;;;;5325653;28;20019;-66
2022/03/04 13:32:45;;;;;;;13.20;8.77;;;;;;;;;;5325805;28;20488;-67
2022/03/04 13:35:16;;;;;;;12.80;8.57;;;;;;;;;;5325287;28;20028;-66
2022/03/04 13:37:48;;;;;;;12.65;8.18;;;;;;;;;;5325562;28;20028;-66
2022/03/04 13:40:20;;;;;;;15.73;9.25;;;;;;;;;;5325969;28;20016;-66
2022/03/04 13:42:52;;;;;;;10.77;7.47;;;;;;;;;;5324537;28;20008;-66
2022/03/04 13:45:30;;;;;;;11.65;7.07;;;;;;;;;;5320031;28;20089;-66
2022/03/04 13:48:02;;;;;;;11.95;6.85;;;;;;;;;;5324120;28;20099;-65
2022/03/04 13:50:34;;;;;;;10.88;6.80;;;;;;;;;;5324873;28;20019;-65
2022/03/04 13:53:05;;;;;;;12.77;8.07;;;;;;;;;;5324928;28;20026;-66
2022/03/04 13:55:46;;;;;;;10.45;7.25;;;;;;;;;;5323926;28;20035;-66
2022/03/04 13:58:19;;;;;;;8.98;6.07;;;;;;;;;;5323706;28;20474;-66
2022/03/04 14:00:52;;;;;;;9.30;5.40;;;;;;;;;;5324379;28;20367;-66
2022/03/04 14:03:25;;;;;;;11.07;7.10;;;;;;;;;;5324093;28;20012;-66
2022/03/04 14:06:04;;;;;;;13.23;8.05;;;;;;;;;;5323968;28;20016;-66
2022/03/04 14:08:36;;;;;;;10.90;6.45;;;;;;;;;;5324771;28;20031;-67
2022/03/04 14:11:08;;;;;;;10.88;7.13;;;;;;;;;;5324537;28;20016;-67
2022/03/04 14:13:40;;;;;;;13.18;8.13;;;;;;;;;;5324723;28;20549;-66
2022/03/04 14:16:11;;;;;;;11.52;7.60;;;;;;;;;;5324198;28;20015;-66
2022/03/04 14:18:45;;;;;;;8.80;5.68;;;;;;;;;;5324663;28;20019;-66
2022/03/04 14:21:16;;;;;;;7.63;5.20;;;;;;;;;;5325142;28;20382;-66
2022/03/04 14:23:47;;;;;;;9.80;5.65;;;;;;;;;;5323448;28;20111;-67
2022/03/04 14:26:19;;;;;;;13.55;7.78;;;;;;;;;;5325070;28;20493;-67
2022/03/04 14:31:40;;;;;;;8.88;6.50;;;;;;;;;;5324232;28;20374;-66
2022/03/04 14:34:11;;;;;;;9.95;6.22;;;;;;;;;;5324624;28;20040;-66
2022/03/04 14:36:42;;;;;;;9.05;6.10;;;;;;;;;;5324772;28;20020;-67
2022/03/04 14:39:13;;;;;;;9.02;6.25;;;;;;;;;;5323744;28;20356;-66
2022/03/04 14:41:44;;;;;;;11.88;6.07;;;;;;;;;;5323372;28;20015;-66
2022/03/04 14:44:16;;;;;;;8.55;5.47;;;;;;;;;;5323935;28;20028;-67
2022/03/04 14:46:47;;;;;;;8.93;5.35;;;;;;;;;;5323978;28;20444;-66
2022/03/04 14:49:18;;;;;;;7.95;4.78;;;;;;;;;;5324614;28;20015;-66